Time,TemperatureF,DewpointF,PressureIn,WindDirection,WindDirectionDegrees,WindSpeedMPH,WindSpeedGustMPH,Humidity,HourlyPrecipIn,Conditions,Clouds,dailyrainin,SoftwareType,DateUTC
2013-07-09 00:00:00,69.8,65.1,30.27,West,270,0.4,0.4,85,0.00,,,0.00,WUHU216HW,2013-07-09 05:00:00,
2013-07-09 00:05:00,69.8,65.1,30.27,West,270,0.4,0.4,85,0.00,,,0.00,WUHU216HW,2013-07-09 05:05:00,
2013-07-09 00:10:00,69.8,65.1,30.27,West,270,0.4,0.4,85,0.00,,,0.00,WUHU216HW,2013-07-09 05:10:00,
2013-07-09 00:30:00,69.5,65.1,30.27,West,270,0.0,0.0,86,0.00,,,0.00,WUHU216HW,2013-07-09 05:30:00,
2013-07-09 00:35:00,69.5,65.1,30.27,West,270,0.0,0.0,86,0.00,,,0.00,WUHU216HW,2013-07-09 05:35:00,
2013-07-09 01:00:00,68.6,64.5,30.27,West,270,0.4,0.4,87,0.00,,,0.00,WUHU216HW,2013-07-09 06:00:00,
2013-07-09 01:05:00,68.6,64.5,30.27,West,270,0.4,0.4,87,0.00,,,0.00,WUHU216HW,2013-07-09 06:05:00,
2013-07-09 01:10:00,68.6,64.5,30.27,West,270,0.4,0.4,87,0.00,,,0.00,WUHU216HW,2013-07-09 06:10:00,
2013-07-09 01:30:00,68.4,64.4,30.26,West,270,0.0,0.0,87,0.00,,,0.00,WUHU216HW,2013-07-09 06:30:00,
2013-07-09 01:35:00,68.4,64.4,30.26,West,270,0.0,0.0,87,0.00,,,0.00,WUHU216HW,2013-07-09 06:35:00,
2013-07-09 02:00:00,68.2,64.2,30.26,West,270,0.0,0.0,87,0.00,,,0.00,WUHU216HW,2013-07-09 07:00:00,
2013-07-09 02:05:00,68.2,64.2,30.26,West,270,0.0,0.0,87,0.00,,,0.00,WUHU216HW,2013-07-09 07:05:00,
2013-07-09 02:10:00,68.2,64.2,30.26,West,270,0.0,0.0,87,0.00,,,0.00,WUHU216HW,2013-07-09 07:10:00,
2013-07-09 02:30:00,67.7,63.6,30.26,West,270,0.0,0.0,87,0.00,,,0.00,WUHU216HW,2013-07-09 07:30:00,
2013-07-09 02:35:00,67.7,63.6,30.26,West,270,0.0,0.0,87,0.00,,,0.00,WUHU216HW,2013-07-09 07:35:00,
2013-07-09 03:00:00,68.0,64.4,30.25,SE,135,0.7,0.7,88,0.00,,,0.00,WUHU216HW,2013-07-09 08:00:00,
2013-07-09 03:05:00,68.0,64.4,30.25,SE,135,0.7,0.7,88,0.00,,,0.00,WUHU216HW,2013-07-09 08:05:00,
2013-07-09 03:30:00,68.0,64.4,30.25,SSW,203,0.0,0.0,88,0.00,,,0.00,WUHU216HW,2013-07-09 08:30:00,
2013-07-09 03:35:00,68.0,64.4,30.25,SSW,203,0.0,0.0,88,0.00,,,0.00,WUHU216HW,2013-07-09 08:35:00,
2013-07-09 04:00:00,67.9,64.2,30.25,SSW,203,0.0,0.0,88,0.00,,,0.00,WUHU216HW,2013-07-09 09:00:00,
2013-07-09 04:05:00,67.9,64.2,30.25,SSW,203,0.0,0.0,88,0.00,,,0.00,WUHU216HW,2013-07-09 09:05:00,
2013-07-09 04:30:00,67.9,64.4,30.24,SSE,158,0.4,0.4,89,0.00,,,0.00,WUHU216HW,2013-07-09 09:30:00,
2013-07-09 04:35:00,67.9,64.4,30.24,SSE,158,0.4,0.4,89,0.00,,,0.00,WUHU216HW,2013-07-09 09:35:00,
2013-07-09 05:00:00,68.0,64.6,30.23,SSE,158,0.9,0.9,89,0.00,,,0.00,WUHU216HW,2013-07-09 10:00:00,
2013-07-09 05:05:00,68.0,64.6,30.23,SSE,158,0.9,0.9,89,0.00,,,0.00,WUHU216HW,2013-07-09 10:05:00,
2013-07-09 05:30:00,67.9,64.4,30.24,WSW,248,0.9,0.9,89,0.00,,,0.00,WUHU216HW,2013-07-09 10:30:00,
2013-07-09 05:35:00,67.9,64.4,30.24,WSW,248,0.9,0.9,89,0.00,,,0.00,WUHU216HW,2013-07-09 10:35:00,
2013-07-09 06:00:00,68.0,65.0,30.24,South,180,0.0,0.0,90,0.00,,,0.00,WUHU216HW,2013-07-09 11:00:00,
2013-07-09 06:05:00,68.0,65.0,30.24,South,180,0.0,0.0,90,0.00,,,0.00,WUHU216HW,2013-07-09 11:05:00,
2013-07-09 06:30:00,68.6,65.5,30.24,SW,225,0.9,0.9,90,0.01,,,0.00,WUHU216HW,2013-07-09 11:30:00,
2013-07-09 06:35:00,68.6,65.5,30.24,SW,225,0.9,0.9,90,0.01,,,0.00,WUHU216HW,2013-07-09 11:35:00,
2013-07-09 07:00:00,68.8,65.7,30.24,SSW,203,1.8,1.8,90,0.01,,,0.01,WUHU216HW,2013-07-09 12:00:00,
2013-07-09 07:05:00,68.8,65.7,30.24,SSW,203,1.8,1.8,90,0.01,,,0.01,WUHU216HW,2013-07-09 12:05:00,
2013-07-09 07:30:00,69.1,66.3,30.22,SE,135,2.5,2.5,91,0.00,,,0.01,WUHU216HW,2013-07-09 12:30:00,
2013-07-09 07:35:00,69.1,66.3,30.22,SE,135,2.5,2.5,91,0.00,,,0.01,WUHU216HW,2013-07-09 12:35:00,
2013-07-09 08:00:00,70.0,67.0,30.20,West,270,0.7,0.7,90,0.00,,,0.01,WUHU216HW,2013-07-09 13:00:00,
2013-07-09 08:05:00,70.0,67.0,30.20,West,270,0.7,0.7,90,0.00,,,0.01,WUHU216HW,2013-07-09 13:05:00,
2013-07-09 08:10:00,70.0,67.0,30.20,West,270,0.7,0.7,90,0.00,,,0.01,WUHU216HW,2013-07-09 13:10:00,
2013-07-09 08:30:00,71.8,68.0,30.19,SSW,203,2.5,2.5,88,0.00,,,0.01,WUHU216HW,2013-07-09 13:30:00,
2013-07-09 08:35:00,71.8,68.0,30.19,SSW,203,2.5,2.5,88,0.00,,,0.01,WUHU216HW,2013-07-09 13:35:00,
2013-07-09 09:00:00,73.3,68.9,30.19,SSE,158,1.8,1.8,86,0.00,,,0.01,WUHU216HW,2013-07-09 14:00:00,
2013-07-09 09:04:00,73.3,68.9,30.19,SSE,158,1.8,1.8,86,0.00,,,0.01,WUHU216HW,2013-07-09 14:04:00,
2013-07-09 09:10:00,73.3,68.9,30.19,SSE,158,1.8,1.8,86,0.00,,,0.01,WUHU216HW,2013-07-09 14:10:00,
2013-07-09 09:30:00,74.9,69.8,30.18,West,270,0.7,0.7,84,0.00,,,0.01,WUHU216HW,2013-07-09 14:30:00,
2013-07-09 09:35:00,74.9,69.8,30.18,West,270,0.7,0.7,84,0.00,,,0.01,WUHU216HW,2013-07-09 14:35:00,
2013-07-09 09:40:00,74.9,69.8,30.18,West,270,0.7,0.7,84,0.00,,,0.01,WUHU216HW,2013-07-09 14:40:00,
2013-07-09 10:00:00,76.0,69.8,30.17,SE,135,3.6,3.6,81,0.00,,,0.01,WUHU216HW,2013-07-09 15:00:00,
2013-07-09 10:05:00,76.0,69.8,30.17,SE,135,3.6,3.6,81,0.00,,,0.01,WUHU216HW,2013-07-09 15:05:00,
2013-07-09 10:09:00,76.0,69.8,30.17,SE,135,3.6,3.6,81,0.00,,,0.01,WUHU216HW,2013-07-09 15:09:00,
2013-07-09 10:30:00,76.3,70.1,30.17,SE,135,1.6,1.6,81,0.00,,,0.01,WUHU216HW,2013-07-09 15:30:00,
2013-07-09 10:35:00,76.3,70.1,30.17,SE,135,1.6,1.6,81,0.00,,,0.01,WUHU216HW,2013-07-09 15:35:00,
2013-07-09 11:00:00,75.6,69.4,30.17,SSE,158,1.1,1.1,81,0.00,,,0.01,WUHU216HW,2013-07-09 16:00:00,
2013-07-09 11:06:00,75.6,69.4,30.17,SE,135,4.5,4.5,81,0.00,,,0.01,WUHU216HW,2013-07-09 16:06:00,
2013-07-09 11:30:00,75.4,69.6,30.15,SE,135,2.0,2.0,82,0.00,,,0.01,WUHU216HW,2013-07-09 16:30:00,
2013-07-09 11:35:00,75.4,69.6,30.15,SE,135,2.0,2.0,82,0.00,,,0.01,WUHU216HW,2013-07-09 16:35:00,
2013-07-09 12:00:00,75.8,69.6,30.14,SE,135,2.5,2.5,81,0.00,,,0.01,WUHU216HW,2013-07-09 17:00:00,
2013-07-09 12:05:00,75.8,69.6,30.14,SE,135,2.5,2.5,81,0.00,,,0.01,WUHU216HW,2013-07-09 17:05:00,
2013-07-09 12:30:00,74.9,68.8,30.13,SE,135,1.6,1.6,81,0.00,,,0.01,WUHU216HW,2013-07-09 17:30:00,
2013-07-09 12:35:00,74.9,68.8,30.13,SE,135,1.6,1.6,81,0.00,,,0.01,WUHU216HW,2013-07-09 17:35:00,
2013-07-09 13:00:00,73.6,68.9,30.13,SW,225,2.9,2.9,85,0.05,,,0.01,WUHU216HW,2013-07-09 18:00:00,
2013-07-09 13:04:00,73.6,68.9,30.13,SW,225,2.9,2.9,85,0.05,,,0.06,WUHU216HW,2013-07-09 18:04:00,
2013-07-09 13:09:00,73.6,68.9,30.13,SW,225,2.9,2.9,85,0.05,,,0.06,WUHU216HW,2013-07-09 18:09:00,
2013-07-09 13:30:00,72.0,67.6,30.12,West,270,0.0,0.0,86,0.17,,,0.06,WUHU216HW,2013-07-09 18:30:00,
2013-07-09 13:35:00,72.0,67.6,30.12,West,270,0.0,0.0,86,0.17,,,0.06,WUHU216HW,2013-07-09 18:35:00,
2013-07-09 14:00:00,71.8,67.8,30.12,SE,135,0.7,0.7,87,0.21,,,0.18,WUHU216HW,2013-07-09 19:00:00,
2013-07-09 14:05:00,71.8,67.8,30.12,SE,135,0.7,0.7,87,0.21,,,0.18,WUHU216HW,2013-07-09 19:05:00,
2013-07-09 14:30:00,72.5,68.8,30.09,SE,135,4.0,4.0,88,0.09,,,0.27,WUHU216HW,2013-07-09 19:30:00,
2013-07-09 14:35:00,72.5,68.8,30.09,SE,135,4.0,4.0,88,0.09,,,0.27,WUHU216HW,2013-07-09 19:35:00,
2013-07-09 15:00:00,73.3,69.8,30.08,SE,135,2.5,2.5,89,0.00,,,0.27,WUHU216HW,2013-07-09 20:00:00,
2013-07-09 15:05:00,73.3,69.8,30.08,SE,135,2.5,2.5,89,0.00,,,0.27,WUHU216HW,2013-07-09 20:05:00,
2013-07-09 15:30:00,75.4,71.0,30.07,SSW,203,1.3,1.3,86,0.00,,,0.27,WUHU216HW,2013-07-09 20:30:00,
2013-07-09 15:35:00,75.4,71.0,30.07,SSW,203,1.3,1.3,86,0.00,,,0.27,WUHU216HW,2013-07-09 20:35:00,
2013-07-09 16:00:00,76.0,70.8,30.05,SSE,158,1.8,1.8,84,0.00,,,0.27,WUHU216HW,2013-07-09 21:00:00,
2013-07-09 16:05:00,76.0,70.8,30.05,SSE,158,1.8,1.8,84,0.00,,,0.27,WUHU216HW,2013-07-09 21:05:00,
2013-07-09 16:30:00,74.7,70.7,30.04,SE,135,3.8,3.8,87,0.03,,,0.27,WUHU216HW,2013-07-09 21:30:00,
2013-07-09 16:35:00,74.7,70.7,30.04,SE,135,3.8,3.8,87,0.03,,,0.27,WUHU216HW,2013-07-09 21:35:00,
2013-07-09 17:00:00,73.8,69.0,30.04,NW,315,1.6,1.6,85,0.10,,,0.31,WUHU216HW,2013-07-09 22:00:00,
2013-07-09 17:05:00,73.8,69.0,30.04,NW,315,1.6,1.6,85,0.10,,,0.31,WUHU216HW,2013-07-09 22:05:00,
2013-07-09 17:30:00,73.4,69.0,30.03,North,0,0.9,0.9,86,0.07,,,0.38,WUHU216HW,2013-07-09 22:30:00,
2013-07-09 17:35:00,73.4,69.0,30.03,North,0,0.9,0.9,86,0.07,,,0.38,WUHU216HW,2013-07-09 22:35:00,
2013-07-09 18:00:00,72.5,67.8,30.04,North,0,0.9,0.9,85,0.00,,,0.38,WUHU216HW,2013-07-09 23:00:00,
2013-07-09 18:05:00,72.5,67.8,30.04,North,0,0.9,0.9,85,0.00,,,0.38,WUHU216HW,2013-07-09 23:05:00,
2013-07-09 18:30:00,72.4,68.0,30.05,ESE,113,0.7,0.7,86,0.00,,,0.38,WUHU216HW,2013-07-09 23:30:00,
2013-07-09 18:35:00,72.4,68.0,30.05,ESE,113,0.7,0.7,86,0.00,,,0.38,WUHU216HW,2013-07-09 23:35:00,
2013-07-09 19:00:00,72.5,67.8,30.05,SE,135,0.0,0.0,85,0.00,,,0.38,WUHU216HW,2013-07-10 00:00:00,
2013-07-09 19:05:00,72.5,67.8,30.05,SE,135,0.0,0.0,85,0.00,,,0.38,WUHU216HW,2013-07-10 00:05:00,
2013-07-09 19:30:00,72.4,68.0,30.05,ENE,68,0.2,0.2,86,0.00,,,0.38,WUHU216HW,2013-07-10 00:30:00,
2013-07-09 19:35:00,72.4,68.0,30.05,ENE,68,0.2,0.2,86,0.00,,,0.38,WUHU216HW,2013-07-10 00:35:00,
2013-07-09 20:00:00,71.8,67.8,30.05,North,0,0.0,0.0,87,0.00,,,0.38,WUHU216HW,2013-07-10 01:00:00,
2013-07-09 20:04:00,71.8,67.8,30.05,North,0,0.0,0.0,87,0.00,,,0.38,WUHU216HW,2013-07-10 01:04:00,
2013-07-09 20:30:00,71.5,67.4,30.06,NNE,23,0.0,0.0,87,0.00,,,0.38,WUHU216HW,2013-07-10 01:30:00,
2013-07-09 20:35:00,71.5,67.4,30.06,NNE,23,0.0,0.0,87,0.00,,,0.38,WUHU216HW,2013-07-10 01:35:00,
2013-07-09 21:00:00,70.7,66.7,30.06,ENE,68,0.9,0.9,87,0.00,,,0.38,WUHU216HW,2013-07-10 02:00:00,
2013-07-09 21:05:00,70.7,66.7,30.06,ENE,68,0.9,0.9,87,0.00,,,0.38,WUHU216HW,2013-07-10 02:05:00,
2013-07-09 21:30:00,69.8,66.1,30.08,NW,315,0.7,0.7,88,0.00,,,0.38,WUHU216HW,2013-07-10 02:30:00,
2013-07-09 21:35:00,69.8,66.1,30.08,NW,315,0.7,0.7,88,0.00,,,0.38,WUHU216HW,2013-07-10 02:35:00,
2013-07-09 22:00:00,69.3,65.6,30.08,ENE,68,0.0,0.0,88,0.00,,,0.38,WUHU216HW,2013-07-10 03:00:00,
2013-07-09 22:04:00,69.3,65.6,30.08,ENE,68,0.0,0.0,88,0.00,,,0.38,WUHU216HW,2013-07-10 03:04:00,
2013-07-09 22:30:00,68.6,64.9,30.08,South,180,0.0,0.0,88,0.00,,,0.38,WUHU216HW,2013-07-10 03:30:00,
2013-07-09 22:35:00,68.6,64.9,30.08,South,180,0.0,0.0,88,0.00,,,0.38,WUHU216HW,2013-07-10 03:35:00,
2013-07-09 23:00:00,68.2,64.8,30.08,SE,135,0.0,0.0,89,0.00,,,0.38,WUHU216HW,2013-07-10 04:00:00,
2013-07-09 23:01:00,68.2,64.8,30.08,SE,135,0.0,0.0,89,0.00,,,0.38,WUHU216HW,2013-07-10 04:01:00,
2013-07-09 23:06:00,68.2,64.8,30.08,SE,135,0.0,0.0,89,0.00,,,0.38,WUHU216HW,2013-07-10 04:06:00,
2013-07-09 23:30:00,68.0,65.0,30.07,NNW,338,0.0,0.0,90,0.00,,,0.38,WUHU216HW,2013-07-10 04:30:00,
2013-07-09 23:35:00,68.0,65.0,30.07,NNW,338,0.0,0.0,90,0.00,,,0.38,WUHU216HW,2013-07-10 04:35:00,